Huvudsida
METAR-TAF:

METAR-TAF

Flygplatser :

Kars, Turkiet

latitud: 40-36N, longitud: 043-05E, höjd: 1775 m

Aktuellt väderrapport

Denna rapport gjordes för 40 minuter sedan, klockan 11:50 UTC
Vind 13 kt från nord/nordväst, varierande mellan väst/nordväst och nord
Temperatur 23°C
Fuktighet 33%
Tryck 1020 hPa
Sikt 10 km eller mer
Spridda moln på en höjd av 4000 ft

METAR: LTCF 141150Z 34013KT 290V360 9999 SCT040 23/06 Q1020 NOSIG

Tid: 15:30 (12:30 UTC)

Väderprognos

Denna rapport gjordes för 1 timme och 50 minuter sedan, klockan 10:40 UTC
Prognos gäller från 14 kl. 12 UTC till 14 kl. 21 UTC
Vind 12 kt från nord/nordväst
Sikt 10 km eller mer
Spridda moln på en höjd av 4000 ft
Blir
från 14 kl. 15 UTC till 14 kl. 17 UTC
Vind 2 kt varierande vindriktning
Sikt 10 km eller mer
Inga moln under 1 500 m eller inga cumulonimbus

TAF: LTCF 141040Z 1412/1421 33012KT 9999 SCT040 BECMG 1415/1417 VRB02KT CAVOK

Aktuella väderrapporter och prognoser från 4000 flygplatser (METAR- och TAF-rapporter).

De tillgängliga stationerna syns som gula och röda prickar på kartan.

För musen över prickarna för att se namnen på stationerna.

Klicka sedan för att få väderrapporter och prognoser.

För att ändra kartan: Klicka på de gröna knapparna med ett svart kors på för att zooma in; den gröna knappen med ett streck på för att zooma ut; eller på de gröna pilarna för angränsande kartor.


METAR-TAF: